Time;durP1;ratioP1;P1;durP2;ratioP2;P2;SDS_P1;SDS_P2;PMS_P1;PMS_P2;Temp;Humidity;BMP_temperature;BMP_pressure;BME280_temperature;BME280_humidity;BME280_pressure;Samples;Min_cycle;Max_cycle;Signal;HPM_P1;HPM_P2
2022/08/14 00:00:36;;;;;;;;;;;;;;;24.56;53.83;100059.69;7405690;19;1321;-64
2022/08/14 00:03:05;;;;;;;;;;;;;;;24.64;53.41;100058.75;7406555;19;1515;-63
2022/08/14 00:05:33;;;;;;;;;;;;;;;24.69;53.38;100053.59;7405621;19;1358;-64
2022/08/14 00:08:01;;;;;;;;;;;;;;;24.69;53.12;100068.97;7405827;19;1483;-63
2022/08/14 00:10:30;;;;;;;;;;;;;;;24.69;52.90;100045.50;7404438;19;1473;-64
2022/08/14 00:13:01;;;;;;;;;;;;;;;24.60;53.22;100052.03;7404134;19;1866;-63
2022/08/14 00:15:30;;;;;;;;;;;;;;;24.68;52.80;100049.22;7405088;19;1642;-64
2022/08/14 00:17:59;;;;;;;;;;;;;;;24.60;53.03;100058.28;7405219;19;1301;-64
2022/08/14 00:20:30;;;;;;;;;;;;;;;24.54;52.95;100055.50;7405382;19;1325;-63
2022/08/14 00:22:58;;;;;;;;;;;;;;;24.65;53.18;100054.16;7405585;19;1430;-63
2022/08/14 00:25:27;;;;;;;;;;;;;;;24.61;53.01;100069.91;7406287;19;1528;-64
2022/08/14 00:27:56;;;;;;;;;;;;;;;24.75;53.26;100070.91;7405031;19;1354;-63
2022/08/14 00:30:28;;;;;;;;;;;;;;;24.74;53.30;100055.72;7404686;19;1400;-63
2022/08/14 00:32:56;;;;;;;;;;;;;;;24.73;53.06;100063.00;7402132;19;1848;-63
2022/08/14 00:35:24;;;;;;;;;;;;;;;24.73;53.06;100035.97;7405194;19;1409;-64
2022/08/14 00:37:53;;;;;;;;;;;;;;;24.69;52.84;100050.03;7405171;19;1373;-63
2022/08/14 00:40:22;;;;;;;;;;;;;;;24.70;53.18;100051.75;7404632;19;1559;-63
2022/08/14 00:42:50;;;;;;;;;;;;;;;24.66;52.99;100045.88;7404055;19;1729;-63
2022/08/14 00:45:19;;;;;;;;;;;;;;;24.68;53.23;100040.28;7403118;19;1742;-64
2022/08/14 00:47:50;;;;;;;;;;;;;;;24.65;53.38;100049.63;7404010;19;1369;-64
2022/08/14 00:50:20;;;;;;;;;;;;;;;24.58;53.40;100049.50;7406215;19;992;-63
2022/08/14 00:52:51;;;;;;;;;;;;;;;24.68;53.24;100051.09;7403191;19;1853;-63
2022/08/14 00:55:20;;;;;;;;;;;;;;;24.65;53.21;100054.16;7403929;19;1496;-64
2022/08/14 00:58:29;;;;;;;;;;;;;;;24.64;53.10;100047.09;7403927;19;1607;-63
2022/08/14 01:00:38;;;;;;;;;;;;;;;24.71;53.07;100062.38;7402752;19;1976;-63
2022/08/14 01:03:09;;;;;;;;;;;;;;;24.56;53.11;100058.84;7403236;19;1358;-63
2022/08/14 01:05:37;;;;;;;;;;;;;;;24.60;53.24;100062.84;7406344;19;1239;-62
2022/08/14 01:08:06;;;;;;;;;;;;;;;24.58;53.04;100041.41;7411478;19;1741;-63
2022/08/14 01:13:20;;;;;;;;;;;;;;;24.65;53.34;100049.63;7406978;19;1857;-64
2022/08/14 01:15:49;;;;;;;;;;;;;;;24.63;53.14;100053.50;7411358;19;1677;-64
2022/08/14 01:21:05;;;;;;;;;;;;;;;24.56;53.02;100056.97;7411192;19;1367;-63
2022/08/14 01:23:38;;;;;;;;;;;;;;;24.45;53.27;100052.03;7410419;19;1485;-63
2022/08/14 01:26:06;;;;;;;;;;;;;;;24.40;53.12;100065.28;7410580;19;1606;-63
2022/08/14 01:28:36;;;;;;;;;;;;;;;24.52;53.07;100066.50;7410732;19;1339;-63
2022/08/14 01:31:07;;;;;;;;;;;;;;;24.63;53.31;100077.84;7411175;19;1867;-63
2022/08/14 01:33:39;;;;;;;;;;;;;;;24.56;53.14;100067.78;7409428;19;1596;-64
2022/08/14 01:36:08;;;;;;;;;;;;;;;24.56;53.25;100065.09;7410874;19;1342;-63
2022/08/14 01:38:41;;;;;;;;;;;;;;;24.54;53.39;100085.22;7410577;19;1594;-64
2022/08/14 01:41:11;;;;;;;;;;;;;;;24.56;53.28;100077.78;7410392;19;1619;-63
2022/08/14 01:43:47;;;;;;;;;;;;;;;24.47;53.27;100090.53;7410817;19;1610;-63
2022/08/14 01:46:16;;;;;;;;;;;;;;;24.41;53.52;100091.25;7410582;19;1614;-63
2022/08/14 01:48:45;;;;;;;;;;;;;;;24.48;53.20;100059.75;7410479;19;1408;-64
2022/08/14 01:51:15;;;;;;;;;;;;;;;24.49;53.40;100061.44;7409647;19;1853;-62
2022/08/14 01:53:47;;;;;;;;;;;;;;;24.44;53.13;100071.16;7410646;19;1315;-63
2022/08/14 01:56:18;;;;;;;;;;;;;;;24.49;53.15;100077.66;7409466;19;1231;-63
2022/08/14 01:58:48;;;;;;;;;;;;;;;24.52;53.23;100066.50;7410355;19;1535;-63
2022/08/14 02:01:17;;;;;;;;;;;;;;;24.48;53.55;100065.16;7404770;19;1497;-63
2022/08/14 02:03:46;;;;;;;;;;;;;;;24.39;53.48;100069.84;7410685;19;1422;-63
2022/08/14 02:06:14;;;;;;;;;;;;;;;24.35;53.75;100065.84;7408015;19;1748;-63
2022/08/14 02:08:43;;;;;;;;;;;;;;;24.46;53.34;100072.63;7409975;19;1476;-64
2022/08/14 02:14:00;;;;;;;;;;;;;;;24.39;53.09;100052.78;7406205;19;1556;-63
2022/08/14 02:16:32;;;;;;;;;;;;;;;24.45;52.93;100064.69;7409249;19;1516;-64
2022/08/14 02:19:02;;;;;;;;;;;;;;;24.39;53.24;100058.19;7408533;19;1356;-63
2022/08/14 02:21:32;;;;;;;;;;;;;;;24.24;53.93;100068.19;7408547;19;1365;-62
2022/08/14 02:24:01;;;;;;;;;;;;;;;24.35;53.26;100062.28;7408235;19;1508;-63
2022/08/14 02:26:33;;;;;;;;;;;;;;;24.52;52.96;100065.66;7408154;19;1630;-62
2022/08/14 02:29:03;;;;;;;;;;;;;;;24.55;52.46;100055.31;7408934;19;1613;-63
2022/08/14 02:31:34;;;;;;;;;;;;;;;24.55;52.30;100068.84;7408618;19;1845;-63
2022/08/14 02:34:05;;;;;;;;;;;;;;;24.55;52.15;100078.78;7407814;19;1602;-62
2022/08/14 02:36:33;;;;;;;;;;;;;;;24.54;52.62;100067.16;7406700;19;1266;-63
2022/08/14 02:39:02;;;;;;;;;;;;;;;24.55;52.29;100076.94;7408758;19;1409;-62
2022/08/14 02:41:33;;;;;;;;;;;;;;;24.54;52.55;100069.84;7408605;19;1290;-62
2022/08/14 02:44:01;;;;;;;;;;;;;;;24.52;52.15;100065.66;7408203;19;1618;-63
2022/08/14 02:46:30;;;;;;;;;;;;;;;24.54;52.13;100074.41;7408495;19;1290;-63
2022/08/14 02:48:59;;;;;;;;;;;;;;;24.51;52.50;100072.94;7407572;19;1610;-63
2022/08/14 02:51:28;;;;;;;;;;;;;;;24.53;52.67;100088.94;7407698;19;1527;-62
2022/08/14 02:53:57;;;;;;;;;;;;;;;24.47;52.52;100074.31;7407917;19;1682;-63
2022/08/14 02:56:26;;;;;;;;;;;;;;;24.49;52.33;100061.44;7406372;19;1318;-63
2022/08/14 02:59:00;;;;;;;;;;;;;;;24.49;52.66;100066.84;7408252;19;1317;-61
2022/08/14 03:01:29;;;;;;;;;;;;;;;24.56;52.28;100069.66;7409547;19;997;-63
2022/08/14 03:03:58;;;;;;;;;;;;;;;24.48;52.40;100062.47;7407807;19;1606;-60
2022/08/14 03:06:26;;;;;;;;;;;;;;;24.49;52.54;100066.84;7407142;19;1401;-60
2022/08/14 03:08:56;;;;;;;;;;;;;;;24.50;52.57;100046.94;7407405;19;1669;-60
2022/08/14 03:11:25;;;;;;;;;;;;;;;24.53;52.56;100061.91;7407673;19;1610;-60
2022/08/14 03:13:53;;;;;;;;;;;;;;;24.56;52.32;100067.78;7405400;19;1842;-60
2022/08/14 03:16:25;;;;;;;;;;;;;;;24.51;52.31;100059.44;7408084;19;1298;-60
2022/08/14 03:18:57;;;;;;;;;;;;;;;24.53;52.47;100070.03;7406638;19;1984;-60
2022/08/14 03:21:26;;;;;;;;;;;;;;;24.56;52.28;100073.19;7405486;19;1376;-60
2022/08/14 03:24:03;;;;;;;;;;;;;;;24.53;52.56;100078.13;7406421;19;1657;-60
2022/08/14 03:26:31;;;;;;;;;;;;;;;24.54;52.30;100074.41;7406841;19;1528;-60
2022/08/14 03:29:01;;;;;;;;;;;;;;;24.45;52.63;100076.34;7406448;19;1413;-60
2022/08/14 03:31:32;;;;;;;;;;;;;;;24.38;53.33;100067.34;7407455;19;1242;-60
2022/08/14 03:34:00;;;;;;;;;;;;;;;24.35;53.24;100086.59;7403971;19;1858;-60
2022/08/14 03:36:31;;;;;;;;;;;;;;;24.31;53.51;100080.75;7403927;19;1344;-60
2022/08/14 03:38:59;;;;;;;;;;;;;;;24.20;53.17;100067.72;7404243;19;1503;-60
2022/08/14 03:41:29;;;;;;;;;;;;;;;24.22;53.25;100071.91;7404581;19;1535;-60
2022/08/14 03:43:58;;;;;;;;;;;;;;;24.28;53.39;100066.78;7406707;19;1325;-60
2022/08/14 03:46:27;;;;;;;;;;;;;;;24.20;53.43;100068.53;7404400;19;1322;-60
2022/08/14 03:49:00;;;;;;;;;;;;;;;24.19;53.36;100061.47;7406010;19;1298;-59
2022/08/14 03:51:28;;;;;;;;;;;;;;;24.25;53.39;100059.88;7404801;19;1378;-60
2022/08/14 03:53:58;;;;;;;;;;;;;;;24.28;53.59;100074.88;7404559;19;1853;-60
2022/08/14 03:56:28;;;;;;;;;;;;;;;24.32;53.67;100070.78;7405194;19;1421;-60
2022/08/14 03:58:58;;;;;;;;;;;;;;;24.29;53.47;100068.44;7405559;19;1412;-60
2022/08/14 04:01:27;;;;;;;;;;;;;;;24.24;53.63;100079.00;7406869;19;1288;-60
2022/08/14 04:04:04;;;;;;;;;;;;;;;24.29;53.57;100065.75;7405980;19;1396;-60
2022/08/14 04:06:32;;;;;;;;;;;;;;;24.34;54.04;100074.97;7404761;19;1194;-60
2022/08/14 04:09:01;;;;;;;;;;;;;;;24.16;54.25;100080.75;7405013;19;1713;-60
2022/08/14 04:11:29;;;;;;;;;;;;;;;24.18;54.17;100094.06;7404194;19;1363;-60
2022/08/14 04:14:00;;;;;;;;;;;;;;;24.18;53.76;100080.56;7403531;19;1872;-60
2022/08/14 04:16:28;;;;;;;;;;;;;;;24.13;54.13;100083.84;7406661;19;1104;-60
2022/08/14 04:19:03;;;;;;;;;;;;;;;24.13;54.03;100089.25;7405354;19;1296;-60
2022/08/14 04:21:31;;;;;;;;;;;;;;;24.25;53.71;100081.47;7404368;19;1286;-60
2022/08/14 04:24:00;;;;;;;;;;;;;;;24.22;53.86;100088.09;7403752;19;1431;-60
2022/08/14 04:26:30;;;;;;;;;;;;;;;24.16;53.51;100085.31;7404178;19;1419;-60
2022/08/14 04:28:58;;;;;;;;;;;;;;;24.19;53.64;100083.09;7404155;19;1328;-60
2022/08/14 04:31:27;;;;;;;;;;;;;;;24.25;53.29;100086.06;7404644;19;1400;-60
2022/08/14 04:33:56;;;;;;;;;;;;;;;24.34;52.88;100076.84;7403114;19;1847;-60
2022/08/14 04:36:26;;;;;;;;;;;;;;;24.31;53.28;100078.06;7403176;19;1386;-60
2022/08/14 04:44:16;;;;;;;;;;;;;;;24.42;53.29;100079.44;7404495;19;1309;-60
2022/08/14 04:48:11;;;;;;;;;;;;;;;24.42;52.96;100068.63;7405129;19;1528;-60
2022/08/14 04:49:32;;;;;;;;;;;;;;;24.53;52.86;100079.00;7402939;19;1318;-60
2022/08/14 04:52:04;;;;;;;;;;;;;;;24.58;53.21;100073.00;7403842;19;1381;-60
2022/08/14 04:54:33;;;;;;;;;;;;;;;24.58;53.11;100071.16;7401163;19;1849;-60
2022/08/14 04:57:01;;;;;;;;;;;;;;;24.64;52.89;100074.97;7403607;19;1378;-60
2022/08/14 04:59:29;;;;;;;;;;;;;;;24.77;52.70;100074.25;7404290;19;1532;-60
2022/08/14 05:01:58;;;;;;;;;;;;;;;25.00;53.45;100071.41;7403947;19;1222;-57
2022/08/14 05:04:26;;;;;;;;;;;;;;;25.06;53.34;100065.22;7404108;19;1626;-59
2022/08/14 05:06:55;;;;;;;;;;;;;;;25.06;53.50;100051.69;7403741;19;1413;-58
2022/08/14 05:09:27;;;;;;;;;;;;;;;25.16;53.46;100062.19;7403400;19;1320;-59
2022/08/14 05:11:55;;;;;;;;;;;;;;;25.11;53.54;100048.41;7403687;19;1977;-58
2022/08/14 05:14:24;;;;;;;;;;;;;;;25.19;54.09;100059.13;7402117;19;1849;-58
2022/08/14 05:16:52;;;;;;;;;;;;;;;25.17;53.93;100063.88;7404406;19;1242;-58
2022/08/14 05:19:20;;;;;;;;;;;;;;;25.20;53.79;100058.91;7403882;19;1298;-57
2022/08/14 05:21:49;;;;;;;;;;;;;;;25.25;53.54;100052.97;7403179;19;1396;-58
2022/08/14 05:24:17;;;;;;;;;;;;;;;25.31;54.16;100060.31;7403100;19;1515;-58
2022/08/14 05:26:48;;;;;;;;;;;;;;;25.38;53.91;100053.06;7402353;19;1638;-59
2022/08/14 05:29:16;;;;;;;;;;;;;;;25.37;54.10;100046.00;7402657;19;1453;-59
2022/08/14 05:31:45;;;;;;;;;;;;;;;25.36;54.09;100036.19;7403580;19;1504;-57
2022/08/14 05:34:13;;;;;;;;;;;;;;;25.40;54.03;100048.28;7401638;19;1857;-57
2022/08/14 05:36:41;;;;;;;;;;;;;;;25.47;54.66;100034.81;7401953;19;1530;-57
2022/08/14 05:39:10;;;;;;;;;;;;;;;25.57;55.40;100046.16;7400828;19;1697;-58
2022/08/14 05:41:38;;;;;;;;;;;;;;;25.55;55.53;100031.97;7402220;19;1428;-59
2022/08/14 05:44:09;;;;;;;;;;;;;;;25.55;55.34;100026.56;7402501;19;1429;-58
2022/08/14 05:46:37;;;;;;;;;;;;;;;25.56;55.36;100055.28;7403076;19;1547;-60
2022/08/14 05:49:06;;;;;;;;;;;;;;;25.55;54.81;100040.09;7403009;19;1381;-59
2022/08/14 05:51:34;;;;;;;;;;;;;;;25.63;54.99;100041.81;7403433;19;1532;-58
2022/08/14 05:54:03;;;;;;;;;;;;;;;25.60;55.17;100032.22;7408265;19;1849;-68
2022/08/14 05:56:31;;;;;;;;;;;;;;;25.71;55.59;100030.84;7409427;19;1334;-60
2022/08/14 05:59:00;;;;;;;;;;;;;;;25.76;57.68;100032.94;7410113;19;1314;-55
2022/08/14 06:01:30;;;;;;;;;;;;;;;25.69;57.40;100034.78;7411104;19;1354;-58
2022/08/14 06:03:59;;;;;;;;;;;;;;;25.65;57.56;100020.78;7407843;19;1246;-58
2022/08/14 06:06:27;;;;;;;;;;;;;;;25.66;57.83;100019.75;7408900;19;1427;-58
2022/08/14 06:08:56;;;;;;;;;;;;;;;25.68;57.83;100017.69;7407776;19;1740;-58
2022/08/14 06:11:25;;;;;;;;;;;;;;;25.67;57.50;100016.03;7408133;19;1320;-56
2022/08/14 06:13:54;;;;;;;;;;;;;;;25.80;57.67;100016.13;7407596;19;1842;-57
2022/08/14 06:16:22;;;;;;;;;;;;;;;25.73;59.17;100026.06;7409925;19;1199;-58
2022/08/14 06:18:53;;;;;;;;;;;;;;;25.72;58.22;100007.28;7408081;19;1568;-59
2022/08/14 06:21:22;;;;;;;;;;;;;;;25.63;59.78;100020.16;7407652;19;1338;-58
2022/08/14 06:23:50;;;;;;;;;;;;;;;25.67;59.40;100004.38;7409104;19;1509;-58
2022/08/14 06:26:19;;;;;;;;;;;;;;;25.58;58.39;100011.78;7406712;19;1553;-57
2022/08/14 06:28:47;;;;;;;;;;;;;;;25.59;58.68;100011.59;7408309;19;1674;-58
2022/08/14 06:31:16;;;;;;;;;;;;;;;25.57;57.44;100010.13;7408283;19;1780;-57
2022/08/14 06:33:45;;;;;;;;;;;;;;;25.53;58.23;100006.97;6370105;19;10000710;-58
2022/08/14 06:36:18;;;;;;;;;;;;;;;25.55;58.29;100013.03;7405074;19;1398;-65
2022/08/14 06:38:47;;;;;;;;;;;;;;;25.56;57.45;100003.84;7399052;19;1191;-57
2022/08/14 06:41:15;;;;;;;;;;;;;;;25.52;58.21;100007.16;7406655;19;1580;-58
2022/08/14 06:43:44;;;;;;;;;;;;;;;25.53;58.20;99998.03;7408965;19;1464;-62
2022/08/14 06:46:12;;;;;;;;;;;;;;;25.55;58.01;99999.47;7406650;19;1769;-58
2022/08/14 06:48:40;;;;;;;;;;;;;;;25.58;57.63;100009.91;7407988;19;1434;-58
2022/08/14 06:51:09;;;;;;;;;;;;;;;25.60;57.61;100004.28;7407331;19;1254;-67
2022/08/14 06:53:42;;;;;;;;;;;;;;;25.61;57.31;99995.16;7407126;19;1855;-66
2022/08/14 06:56:10;;;;;;;;;;;;;;;25.58;59.02;99990.94;7407355;19;1317;-57
2022/08/14 06:58:38;;;;;;;;;;;;;;;25.66;58.82;99987.25;7406494;19;1283;-64
2022/08/14 07:06:29;;;;;;;;;;;;;;;25.66;59.85;100003.50;7409527;19;1722;-58
2022/08/14 07:09:00;;;;;;;;;;;;;;;25.67;59.18;99988.94;7407834;19;1764;-58
2022/08/14 07:11:28;;;;;;;;;;;;;;;25.66;58.96;99987.25;7407324;19;1242;-64
2022/08/14 07:13:57;;;;;;;;;;;;;;;25.66;58.92;99998.09;7406680;19;1867;-63
2022/08/14 07:16:25;;;;;;;;;;;;;;;25.63;58.62;99990.38;7404946;19;1372;-58
2022/08/14 07:18:55;;;;;;;;;;;;;;;25.64;58.62;99994.75;7404637;19;1210;-58
2022/08/14 07:21:24;;;;;;;;;;;;;;;25.70;58.70;99998.53;7405934;19;1400;-57
2022/08/14 07:23:52;;;;;;;;;;;;;;;25.66;58.39;99992.66;7403277;19;1443;-58
2022/08/14 07:26:23;;;;;;;;;;;;;;;25.72;58.12;99994.59;7404418;19;1357;-64
2022/08/14 07:28:51;;;;;;;;;;;;;;;25.68;58.18;99995.19;7403447;19;1333;-58
2022/08/14 07:31:19;;;;;;;;;;;;;;;25.72;58.52;99977.50;7225538;19;15971;-63
2022/08/14 07:33:50;;;;;;;;;;;;;;;25.68;58.65;99984.34;7402214;19;1853;-64
2022/08/14 07:36:19;;;;;;;;;;;;;;;25.66;59.40;99989.97;7401812;19;1429;-63
2022/08/14 07:38:47;;;;;;;;;;;;;;;25.63;59.32;99990.38;7406389;19;1311;-58
2022/08/14 07:41:16;;;;;;;;;;;;;;;25.67;59.10;99988.94;7406239;19;1326;-63
2022/08/14 07:43:46;;;;;;;;;;;;;;;25.63;58.90;99974.13;7406654;19;1232;-58
2022/08/14 07:46:15;;;;;;;;;;;;;;;25.69;58.89;99992.28;7406020;19;1489;-64
2022/08/14 07:48:47;;;;;;;;;;;;;;;25.67;58.98;99971.88;7404458;19;1631;-64
2022/08/14 07:51:15;;;;;;;;;;;;;;;25.68;58.79;99974.34;7405686;19;1313;-58
2022/08/14 07:53:44;;;;;;;;;;;;;;;25.64;59.03;99985.78;7405093;19;1861;-57
2022/08/14 07:56:12;;;;;;;;;;;;;;;25.64;58.81;99978.50;7405550;19;1569;-59
2022/08/14 07:58:41;;;;;;;;;;;;;;;25.78;58.24;99984.81;7406059;19;1453;-60
2022/08/14 08:01:13;;;;;;;;;;;;;;;25.80;58.13;99986.31;7402365;19;1567;-61
2022/08/14 08:03:42;;;;;;;;;;;;;;;25.83;58.25;99973.41;7406037;19;1628;-58
2022/08/14 08:06:10;;;;;;;;;;;;;;;25.77;58.47;99986.72;7403787;19;1314;-63
2022/08/14 08:08:39;;;;;;;;;;;;;;;25.78;58.21;99980.28;7405093;19;1326;-60
2022/08/14 08:11:07;;;;;;;;;;;;;;;25.80;58.24;99982.75;7404157;19;1252;-57
2022/08/14 08:13:36;;;;;;;;;;;;;;;25.74;58.50;99976.25;7405139;19;1846;-59
2022/08/14 08:16:06;;;;;;;;;;;;;;;24.90;58.85;99976.22;7403179;19;1446;-59
2022/08/14 08:18:38;;;;;;;;;;;;;;;24.15;58.08;99970.19;7405172;19;1486;-57
2022/08/14 08:21:07;;;;;;;;;;;;;;;23.74;56.92;99994.97;7406006;19;1339;-58
2022/08/14 08:23:35;;;;;;;;;;;;;;;23.33;56.82;99985.41;7405616;19;1539;-57
2022/08/14 08:26:03;;;;;;;;;;;;;;;23.38;56.73;99979.47;7406302;19;1536;-56
2022/08/14 08:28:32;;;;;;;;;;;;;;;23.61;57.44;99987.47;7403138;19;1628;-58
2022/08/14 08:31:02;;;;;;;;;;;;;;;23.68;57.87;99963.31;7403768;19;1634;-63
2022/08/14 08:33:32;;;;;;;;;;;;;;;23.65;58.09;99964.50;7404498;19;1862;-63
2022/08/14 08:36:05;;;;;;;;;;;;;;;23.33;58.31;99904.47;7402969;19;1357;-64
2022/08/14 08:38:34;;;;;;;;;;;;;;;23.70;57.89;99985.56;7405338;19;1152;-57
2022/08/14 08:41:03;;;;;;;;;;;;;;;23.59;58.12;99947.19;7406169;19;1069;-57
2022/08/14 08:43:33;;;;;;;;;;;;;;;23.58;57.75;99960.88;7404916;19;1349;-57
2022/08/14 08:46:02;;;;;;;;;;;;;;;23.66;58.01;99938.38;7404811;19;1426;-57
2022/08/14 08:48:31;;;;;;;;;;;;;;;23.58;58.34;99923.09;7405676;19;1544;-64
2022/08/14 08:51:03;;;;;;;;;;;;;;;23.50;58.24;99959.09;7404729;19;1599;-57
2022/08/14 08:53:32;;;;;;;;;;;;;;;23.52;58.29;99950.84;7404079;19;1851;-63
2022/08/14 08:56:01;;;;;;;;;;;;;;;23.34;58.33;99943.91;7404445;19;1589;-63
2022/08/14 08:58:30;;;;;;;;;;;;;;;23.31;58.12;99938.88;7405447;19;1687;-64
2022/08/14 09:01:00;;;;;;;;;;;;;;;23.32;57.81;99937.88;7404454;19;1670;-63
2022/08/14 09:03:31;;;;;;;;;;;;;;;23.25;57.99;99934.22;7404142;19;1620;-64
2022/08/14 09:06:01;;;;;;;;;;;;;;;23.21;58.02;99922.97;7404026;19;1590;-57
2022/08/14 09:08:33;;;;;;;;;;;;;;;23.17;57.72;99926.22;7403556;19;1408;-63
2022/08/14 09:11:03;;;;;;;;;;;;;;;23.26;57.65;99921.56;7402162;19;1513;-58
2022/08/14 09:13:32;;;;;;;;;;;;;;;23.18;58.16;99919.81;7405046;19;930;-57
2022/08/14 09:16:00;;;;;;;;;;;;;;;23.21;58.05;99900.56;7400183;19;1855;-58
2022/08/14 09:18:29;;;;;;;;;;;;;;;23.20;58.43;99906.97;7401042;19;1287;-63
2022/08/14 09:20:58;;;;;;;;;;;;;;;23.28;58.88;99896.09;7402988;19;1556;-58
2022/08/14 09:23:26;;;;;;;;;;;;;;;23.41;59.71;99901.66;7403041;19;1463;-63
2022/08/14 09:25:58;;;;;;;;;;;;;;;23.29;59.00;99918.50;7405719;19;928;-57
2022/08/14 09:28:26;;;;;;;;;;;;;;;23.22;59.69;99902.25;7411889;19;1525;-61
2022/08/14 09:30:56;;;;;;;;;;;;;;;23.18;60.69;99909.84;7409962;19;1730;-62
2022/08/14 09:33:33;;;;;;;;;;;;;;;23.35;60.85;99896.19;7411511;19;1528;-58
2022/08/14 09:36:24;;;;;;;;;;;;;;;23.26;60.48;99892.75;7407535;19;1838;-58
2022/08/14 09:38:56;;;;;;;;;;;;;;;23.70;59.51;99900.00;7408711;19;1417;-57
2022/08/14 09:41:35;;;;;;;;;;;;;;;24.24;58.75;99892.56;7410607;19;1166;-57
2022/08/14 09:44:07;;;;;;;;;;;;;;;24.63;58.70;99891.31;7409770;19;1157;-57
2022/08/14 09:46:36;;;;;;;;;;;;;;;24.80;59.63;99887.31;7409269;19;1765;-56
2022/08/14 09:49:06;;;;;;;;;;;;;;;24.88;59.48;99887.16;7408554;19;1676;-58
2022/08/14 09:51:35;;;;;;;;;;;;;;;24.78;60.45;99902.91;7409989;19;1754;-59
2022/08/14 09:54:08;;;;;;;;;;;;;;;24.80;60.09;99898.13;7409131;19;1861;-60
2022/08/14 09:56:49;;;;;;;;;;;;;;;24.79;60.17;99883.78;7410537;19;1321;-58
2022/08/14 09:59:21;;;;;;;;;;;;;;;24.91;60.19;99896.75;7409395;19;1641;-60
2022/08/14 10:01:50;;;;;;;;;;;;;;;24.42;61.40;99895.66;7410790;19;1418;-60
2022/08/14 10:04:23;;;;;;;;;;;;;;;23.75;61.12;99886.75;7410170;19;1615;-65
2022/08/14 10:06:51;;;;;;;;;;;;;;;23.43;60.49;99899.63;7409946;19;1073;-60
2022/08/14 10:09:20;;;;;;;;;;;;;;;22.92;60.15;99896.75;7409729;19;1715;-60
2022/08/14 10:12:01;;;;;;;;;;;;;;;22.91;58.85;99872.69;7405323;19;1315;-69
2022/08/14 10:14:31;;;;;;;;;;;;;;;22.83;58.20;99904.06;7406655;19;1869;-60
2022/08/14 10:17:02;;;;;;;;;;;;;;;22.74;57.48;99890.84;7408607;19;1394;-61
2022/08/14 10:19:30;;;;;;;;;;;;;;;22.75;57.35;99879.06;7408247;19;1532;-59
2022/08/14 10:21:59;;;;;;;;;;;;;;;22.89;57.57;99877.41;7407809;19;1410;-61
2022/08/14 10:24:29;;;;;;;;;;;;;;;23.02;57.33;99891.97;7406282;19;1422;-58
2022/08/14 10:27:01;;;;;;;;;;;;;;;22.75;58.78;99874.50;7408283;19;1331;-61
2022/08/14 10:29:34;;;;;;;;;;;;;;;22.66;59.69;99875.59;7404637;19;1543;-60
2022/08/14 10:32:03;;;;;;;;;;;;;;;22.67;59.93;99876.44;7405374;19;1201;-60
2022/08/14 10:34:35;;;;;;;;;;;;;;;22.71;59.94;99885.81;7404941;19;1846;-59
2022/08/14 10:37:06;;;;;;;;;;;;;;;22.70;60.35;99874.22;7405449;19;1419;-60
2022/08/14 10:39:35;;;;;;;;;;;;;;;22.59;60.66;99888.94;7402426;19;1331;-58
2022/08/14 10:42:07;;;;;;;;;;;;;;;22.75;60.45;99906.00;7403005;19;1290;-60
2022/08/14 10:44:37;;;;;;;;;;;;;;;22.64;60.88;99881.16;7405605;19;1675;-60
2022/08/14 10:47:09;;;;;;;;;;;;;;;22.64;60.71;99888.38;7407919;19;1765;-59
2022/08/14 10:49:38;;;;;;;;;;;;;;;22.80;60.45;99876.63;7408399;19;1402;-59
2022/08/14 10:52:08;;;;;;;;;;;;;;;22.74;60.45;99882.75;7408014;19;1252;-59
2022/08/14 10:54:40;;;;;;;;;;;;;;;22.63;60.85;99898.34;7405440;19;1859;-59
2022/08/14 10:57:18;;;;;;;;;;;;;;;22.61;61.19;99894.16;7405743;19;1800;-59
2022/08/14 10:59:49;;;;;;;;;;;;;;;22.84;60.07;99889.59;7402587;19;1307;-61
2022/08/14 11:02:19;;;;;;;;;;;;;;;22.66;60.63;99882.81;7406606;19;1220;-60
2022/08/14 11:04:59;;;;;;;;;;;;;;;22.83;60.11;99887.91;7404820;19;1448;-58
2022/08/14 11:07:27;;;;;;;;;;;;;;;22.95;59.41;99885.59;7406133;19;1275;-57
2022/08/14 11:09:57;;;;;;;;;;;;;;;22.79;60.17;99891.16;7403440;19;1302;-61
2022/08/14 11:12:29;;;;;;;;;;;;;;;22.76;60.59;99875.31;7406301;19;1326;-61
2022/08/14 11:14:58;;;;;;;;;;;;;;;23.00;60.52;99864.31;7402560;19;1857;-60
2022/08/14 11:17:27;;;;;;;;;;;;;;;23.15;60.88;99868.94;7406664;19;1398;-61
2022/08/14 11:20:00;;;;;;;;;;;;;;;23.09;61.22;99869.66;7403425;19;1333;-58
2022/08/14 11:22:29;;;;;;;;;;;;;;;23.16;61.53;99867.91;7406335;19;1449;-58
2022/08/14 11:25:03;;;;;;;;;;;;;;;23.19;61.61;99871.06;7403161;19;1774;-64
2022/08/14 11:27:35;;;;;;;;;;;;;;;23.20;61.79;99880.00;7404838;19;1326;-62
2022/08/14 11:30:07;;;;;;;;;;;;;;;23.20;61.96;99877.31;7406137;19;1481;-65
2022/08/14 11:32:35;;;;;;;;;;;;;;;23.17;62.56;99874.97;7406732;19;1095;-61
2022/08/14 11:35:04;;;;;;;;;;;;;;;23.20;62.55;99867.34;7402905;19;1850;-61
2022/08/14 11:37:33;;;;;;;;;;;;;;;23.26;62.29;99849.59;7403938;19;1751;-59
2022/08/14 11:40:02;;;;;;;;;;;;;;;23.29;62.70;99860.00;7405858;19;1322;-61
2022/08/14 11:42:35;;;;;;;;;;;;;;;23.23;63.02;99861.56;7403801;19;1584;-57
2022/08/14 11:45:06;;;;;;;;;;;;;;;23.17;62.03;99877.66;7406062;19;1276;-59
2022/08/14 11:47:34;;;;;;;;;;;;;;;23.12;61.37;99898.94;7404534;19;1413;-59
2022/08/14 11:50:12;;;;;;;;;;;;;;;23.11;61.80;99898.13;7404033;19;1299;-62
2022/08/14 11:52:41;;;;;;;;;;;;;;;23.14;62.29;99918.47;7405017;19;1256;-58
2022/08/14 11:55:11;;;;;;;;;;;;;;;23.11;62.33;99908.91;7401666;19;1849;-58
2022/08/14 11:57:43;;;;;;;;;;;;;;;23.07;62.69;99922.94;7404439;19;1357;-61
2022/08/14 12:00:15;;;;;;;;;;;;;;;23.18;62.89;99925.22;7369032;19;12676;-62
2022/08/14 12:02:54;;;;;;;;;;;;;;;23.25;62.77;99947.72;7404481;19;1373;-60
2022/08/14 12:05:37;;;;;;;;;;;;;;;23.24;62.86;99937.97;7403670;19;1416;-60
2022/08/14 12:08:07;;;;;;;;;;;;;;;23.27;63.00;99940.28;7405166;19;1535;-62
2022/08/14 12:10:36;;;;;;;;;;;;;;;23.26;63.10;99949.41;7401767;19;1353;-59
2022/08/14 12:13:18;;;;;;;;;;;;;;;23.27;63.19;99964.56;7402833;19;1206;-59
2022/08/14 12:15:48;;;;;;;;;;;;;;;23.27;63.21;99966.41;7399672;19;1849;-60
2022/08/14 12:18:18;;;;;;;;;;;;;;;23.25;63.43;99987.34;7401892;19;1290;-59
2022/08/14 12:20:46;;;;;;;;;;;;;;;23.35;63.78;99988.75;7404064;19;1226;-60
2022/08/14 12:23:22;;;;;;;;;;;;;;;23.20;62.36;100001.38;7403233;19;1446;-59
2022/08/14 12:25:50;;;;;;;;;;;;;;;23.10;62.17;100008.84;7403550;19;1624;-60
2022/08/14 12:28:21;;;;;;;;;;;;;;;23.03;62.98;100016.84;7404341;19;1291;-59
2022/08/14 12:30:50;;;;;;;;;;;;;;;23.09;62.87;100043.09;7403968;19;1667;-60
2022/08/14 12:33:24;;;;;;;;;;;;;;;23.15;63.06;100055.03;7403193;19;1436;-60
2022/08/14 12:35:53;;;;;;;;;;;;;;;23.17;63.08;100063.78;7402497;19;1860;-60
2022/08/14 12:38:32;;;;;;;;;;;;;;;23.17;63.12;100072.69;7401658;19;1277;-59
2022/08/14 12:41:01;;;;;;;;;;;;;;;23.27;63.57;100088.63;7405589;19;1061;-61
2022/08/14 12:43:33;;;;;;;;;;;;;;;23.32;64.04;100088.94;7403389;19;1723;-59
2022/08/14 12:46:03;;;;;;;;;;;;;;;23.40;64.77;100056.50;7403868;19;1567;-60
2022/08/14 12:48:31;;;;;;;;;;;;;;;23.42;65.46;100051.75;7403430;19;1764;-60
2022/08/14 12:50:59;;;;;;;;;;;;;;;23.51;65.86;100051.69;7403113;19;1370;-61
2022/08/14 12:53:35;;;;;;;;;;;;;;;23.53;66.15;100066.66;7404859;19;1406;-62
2022/08/14 12:56:06;;;;;;;;;;;;;;;23.54;65.88;100079.16;7403237;19;1837;-61
2022/08/14 12:58:39;;;;;;;;;;;;;;;23.12;64.58;100079.63;7403946;19;1404;-63
2022/08/14 13:01:08;;;;;;;;;;;;;;;23.05;64.10;100100.28;7402480;19;1679;-60
2022/08/14 13:03:37;;;;;;;;;;;;;;;23.11;64.36;100110.34;7403497;19;1303;-60
2022/08/14 13:06:06;;;;;;;;;;;;;;;23.10;64.46;100108.66;7402987;19;1235;-60
2022/08/14 13:08:35;;;;;;;;;;;;;;;23.09;64.57;100098.91;7403509;19;1768;-61
2022/08/14 13:11:05;;;;;;;;;;;;;;;23.23;64.20;100100.81;7403436;19;1405;-61
2022/08/14 13:13:36;;;;;;;;;;;;;;;23.23;64.45;100095.41;7404664;19;1599;-64
2022/08/14 13:16:08;;;;;;;;;;;;;;;23.28;65.01;100102.97;7400674;19;1859;-65
2022/08/14 13:18:40;;;;;;;;;;;;;;;23.30;65.24;100093.69;7400555;19;1461;-64
2022/08/14 13:21:09;;;;;;;;;;;;;;;23.48;65.51;100074.50;7401187;19;1683;-61
2022/08/14 13:23:39;;;;;;;;;;;;;;;23.53;66.59;100063.13;7344292;19;12700;-58